Mobile, AL

10:39 PM CDT on September 15, 2014 (GMT -0500)
Seven Hills | Change Station
CLOSE
Current Station
Personal Weather Station
Location: Mobile, AL
Elevation: 190 ft
Nearby Weather Stations

Elev 190 ft 30.65 °N, 88.29 °W | Updated 12 minutes ago

Scattered Clouds
Scattered Clouds
77.0 °F
Feels Like 78 °F
N
0.0
Wind Variable Wind from SE
Gusts 0.0 mph

Today
High -- | Low -- °F
--% Chance of Precip.
Yesterday
High -- | Low -- °F
Precip. -- in
6:37 AM 6:58 PM
Waning Gibbous, 49% visible
Pressure 30.09 in
Visibility 10.0 miles
Clouds Few 10000 ft
Scattered Clouds 20000 ft
Heat Index 78 °F
Dew Point 75 °F
Humidity 94%
Rainfall 0.00 in
Snow Depth Not available.
UV 0 out of 12
Pollen 9.00 out of 12
Ozone Good
Flu Activity Not available.
METAR KMOB 160256Z 00000KT 10SM FEW100 SCT200 25/24 A3009 RMK AO2 SLP187 T02500244 50010

More Conditions Fewer Conditions

Pressure 30.09 in
Visibility 10.0 miles
Clouds Few 10000 ft
Scattered Clouds 20000 ft
Heat Index 78 °F
Dew Point 75 °F
Humidity 94%
Rainfall 0.00 in
Snow Depth Not available.
UV 0 out of 12
Pollen 9.00 out of 12
Ozone Good
Flu Activity Not available.
METAR KMOB 160256Z 00000KT 10SM FEW100 SCT200 25/24 A3009 RMK AO2 SLP187 T02500244 50010

More Conditions Fewer Conditions

10-Day Weather Forecast

Almanac

Astronomy

Sep. 15, 2014 Rise Set
Actual Time 6:37 AM CDT 6:58 PM CDT
Civil Twilight 6:13 AM CDT 7:22 PM CDT
Nautical Twilight 5:44 AM CDT 7:50 PM CDT
Astronomical Twilight 5:16 AM CDT 8:19 PM CDT
Moon No Moon Rise 1:13 PM CDT (9/15)
Length of Visible Light 13h 09m
Length of Day
12h 21m
Tomorrow will be 1m 51s shorter.
Waning Gibbous, 49% of the Moon is Illuminated
Today
Waning Gibbous
Sep 24
New
Oct 1
First Quarter
Oct 8
Full
Oct 15
Last Quarter

Today's Extremes

State Highs State Lows

Community

WunderPhotos

Upload Photos

1,753,693 photos uploaded!

Nearby

Air Quality

  Air Quality AQ Index Pollutant
Yesterday Good
OZONE
Current Good
OZONE
Monday Good
OZONE
Tuesday Good
OZONE

Snow Depth

Station Depth Elevation
No new snow has been reported.

Earthquake Activity

City Distance Mag. Time & Date
No recent earthquake activity has been reported nearby.
Minimum magnitude displayed is 2.5.

Coastal Water Temperatures

Place Temperature
Mobile State Docks, AL 87.1 °F
Coast Guard Sector Mobile, AL 87.1 °F

Nearby Weather Stations